Ixtapa Zihuatanejo International Airport
MMZH : now visible

Airfield :











YOU CAN JOIN US ON...

 
LOGIN :

Register | Disclaimer

   EN    FR    IT 

 









Legend :    VFR   Marginal VFR   IFR   Intensive IFR   Very Intensive IFR
Visi :
Ceiling :
>= 8 km
>= 3000ft
5 to 8 km
1000 to 3000 ft
1500m to 5 km
500 to 1000 ft
800 to 1500m
200 to 500 ft
< 800m
< 200 ft
Symbols :   Thunderstorms  Fog  Heavy snow  Heavy precipitations  Wind > 20 kt







- Airport Elevation : 26 ft
- IATA code : ZIH


MMZH - Ixtapa Zihuatanejo International

CURRENT METAR :
  • 202340Z 20010KT 6SM SKC 29/23 A2979 RMK SLP080 57006 911 HZY

EXPIRED METARs :
  • 202241Z 26010KT 6SM SKC 29/23 A2980 RMK HZY
  • 202144Z 23010KT 7SM SKC 29/23 A2981 RMK HZY

TAF TAF MMZH
Valid from the 20 at 18:00 until the 21 at 18:00 UTC


201639Z 2018/2118 24010KT P6SM SCT020 SCT100
TEMPO 2021/2101 BKN020
FM210400 00000KT P6SM OVC020
FM211600 26010KT P6SM SCT020 SCT100
MMFR FIR / North America



MET'MAP, your aeronautical weather chart ! - Copyright ORBIFLY December 2007 - Disclaimer

ORBIFLY MET'MAP TEAM :

Programming & Development : Alexandra Zaïnal
Concept & Development : Baudouin d'Aumeries
Co-Development & Prog : Marc-Olivier Méhu
Technical & hardware support : Manuel Goepfert

Contact : metmap@orbifly.com




SOURCES & CREDITS :

   NOAA       Earth
Advisory